Time;durP1;ratioP1;P1;durP2;ratioP2;P2;SDS_P1;SDS_P2;PMS_P1;PMS_P2;Temp;Humidity;BMP_temperature;BMP_pressure;BME280_temperature;BME280_humidity;BME280_pressure;Samples;Min_cycle;Max_cycle;Signal;HPM_P1;HPM_P2
2021/08/25 00:00:27;;;;;;;6.80;5.45;;;24.90;52.80;;;;;;5028386;28;20385;-63
2021/08/25 00:02:53;;;;;;;13.63;8.18;;;24.90;52.20;;;;;;5013761;28;20344;-64
2021/08/25 00:05:19;;;;;;;16.60;11.75;;;24.90;52.40;;;;;;5024107;28;20050;-64
2021/08/25 00:07:44;;;;;;;5.78;4.13;;;25.00;52.60;;;;;;5015663;28;20030;-64
2021/08/25 00:10:11;;;;;;;7.88;3.58;;;25.00;52.40;;;;;;5022880;28;20643;-64
2021/08/25 00:12:37;;;;;;;4.10;2.45;;;25.00;52.20;;;;;;5022411;28;20034;-64
2021/08/25 00:15:04;;;;;;;4.88;2.30;;;25.00;51.80;;;;;;5028195;28;20356;-64
2021/08/25 00:17:30;;;;;;;7.40;4.20;;;25.00;51.60;;;;;;5031535;28;20030;-64
2021/08/25 00:19:56;;;;;;;4.65;2.83;;;25.00;51.90;;;;;;5030477;28;20411;-65
2021/08/25 00:22:22;;;;;;;5.63;2.42;;;25.10;51.90;;;;;;5031132;28;20099;-64
2021/08/25 00:24:48;;;;;;;5.50;2.17;;;25.00;51.50;;;;;;5026810;28;20037;-64
2021/08/25 00:27:13;;;;;;;4.38;2.33;;;25.10;51.40;;;;;;5025535;28;20033;-64
2021/08/25 00:29:39;;;;;;;4.13;2.00;;;25.00;51.40;;;;;;5029339;28;20463;-64
2021/08/25 00:32:05;;;;;;;2.10;1.90;;;25.00;51.60;;;;;;5023072;28;20036;-64
2021/08/25 00:34:31;;;;;;;3.13;1.80;;;24.90;51.70;;;;;;5027012;28;20026;-64
2021/08/25 00:36:57;;;;;;;6.00;2.35;;;24.90;52.20;;;;;;5032604;28;20029;-64
2021/08/25 00:39:22;;;;;;;4.68;2.50;;;24.90;51.60;;;;;;5034473;28;20028;-64
2021/08/25 00:41:48;;;;;;;2.63;1.95;;;24.90;51.70;;;;;;5029973;28;20083;-64
2021/08/25 00:44:13;;;;;;;2.10;1.80;;;24.80;51.70;;;;;;5030545;28;20056;-64
2021/08/25 00:46:39;;;;;;;5.95;2.03;;;24.80;52.00;;;;;;5027000;28;20044;-63
2021/08/25 00:49:05;;;;;;;3.38;1.95;;;24.80;51.90;;;;;;5026497;28;20021;-64
2021/08/25 00:51:31;;;;;;;3.67;2.33;;;24.80;51.80;;;;;;5034963;28;20379;-64
2021/08/25 00:53:57;;;;;;;3.15;1.90;;;24.80;52.10;;;;;;5033855;28;20022;-63
2021/08/25 00:56:22;;;;;;;2.72;2.08;;;24.80;52.20;;;;;;5029534;28;20033;-64
2021/08/25 00:58:50;;;;;;;6.57;2.15;;;24.80;52.10;;;;;;5005869;28;20480;-63
2021/08/25 01:01:43;;;;;;;3.65;2.40;;;24.80;52.40;;;;;;5033749;28;20451;-63
2021/08/25 01:04:18;;;;;;;4.47;1.80;;;24.70;53.60;;;;;;5027201;28;20061;-64
2021/08/25 01:06:45;;;;;;;5.20;2.38;;;24.70;53.40;;;;;;5034988;28;20026;-64
2021/08/25 01:09:11;;;;;;;3.08;2.08;;;24.70;53.30;;;;;;5012278;28;20030;-64
2021/08/25 01:11:43;;;;;;;1.88;1.75;;;24.60;53.60;;;;;;5024147;28;20032;-64
2021/08/25 01:14:08;;;;;;;2.78;2.10;;;24.70;54.00;;;;;;5021435;28;20112;-64
2021/08/25 01:16:38;;;;;;;2.95;2.10;;;24.60;53.70;;;;;;5025173;28;20105;-63
2021/08/25 01:19:04;;;;;;;3.08;1.77;;;24.60;53.90;;;;;;5032213;28;20033;-63
2021/08/25 01:21:30;;;;;;;5.35;2.20;;;24.50;53.60;;;;;;5033820;28;20037;-63
2021/08/25 01:23:56;;;;;;;4.97;2.30;;;24.50;54.10;;;;;;5034544;28;20037;-64
2021/08/25 01:26:22;;;;;;;4.00;2.00;;;24.50;54.20;;;;;;5028890;28;20400;-64
2021/08/25 01:28:51;;;;;;;6.82;2.65;;;24.50;54.20;;;;;;5027716;28;20071;-64
2021/08/25 01:31:19;;;;;;;5.22;2.35;;;24.50;54.20;;;;;;5030912;28;20029;-64
2021/08/25 01:33:44;;;;;;;3.45;2.30;;;24.40;54.50;;;;;;5021142;28;20032;-63
2021/08/25 01:36:16;;;;;;;3.15;2.30;;;24.40;54.70;;;;;;5031284;28;20033;-64
2021/08/25 01:38:47;;;;;;;2.88;1.80;;;24.50;54.70;;;;;;5019028;28;20427;-64
2021/08/25 01:41:13;;;;;;;2.53;2.10;;;24.30;54.70;;;;;;5030528;28;20033;-64
2021/08/25 01:43:38;;;;;;;5.15;2.47;;;24.40;54.70;;;;;;5026089;28;20467;-64
2021/08/25 01:46:04;;;;;;;2.17;1.98;;;24.40;54.90;;;;;;5020685;28;20135;-64
2021/08/25 01:48:34;;;;;;;4.35;2.60;;;24.20;55.00;;;;;;5033192;28;20024;-64
2021/08/25 01:51:00;;;;;;;2.80;2.20;;;24.00;55.80;;;;;;5031183;28;20113;-64
2021/08/25 01:53:26;;;;;;;3.92;2.38;;;24.00;55.90;;;;;;5025700;28;20033;-64
2021/08/25 01:55:51;;;;;;;3.90;2.50;;;24.00;56.00;;;;;;5024864;28;20040;-64
2021/08/25 01:58:17;;;;;;;2.65;2.10;;;24.00;56.10;;;;;;5025480;28;20486;-64
2021/08/25 02:00:42;;;;;;;3.28;2.53;;;24.00;56.50;;;;;;5024505;28;20075;-64
2021/08/25 02:03:08;;;;;;;4.90;2.25;;;24.00;56.20;;;;;;5020090;28;20033;-64
2021/08/25 02:05:34;;;;;;;2.90;2.50;;;24.00;56.50;;;;;;5024776;28;20438;-64
2021/08/25 02:07:59;;;;;;;3.50;2.47;;;23.90;56.60;;;;;;5033672;28;20025;-64
2021/08/25 02:10:41;;;;;;;5.22;2.10;;;23.90;56.80;;;;;;5029156;28;20030;-63
2021/08/25 02:13:07;;;;;;;2.38;1.75;;;23.80;57.40;;;;;;5003111;28;20365;-63
2021/08/25 02:15:33;;;;;;;4.50;2.17;;;23.80;57.30;;;;;;5027783;28;20037;-64
2021/08/25 02:17:58;;;;;;;2.55;1.95;;;23.70;57.20;;;;;;5022823;28;20029;-64
2021/08/25 02:20:24;;;;;;;2.13;1.90;;;23.60;57.20;;;;;;5024787;28;20113;-63
2021/08/25 02:22:50;;;;;;;2.78;2.22;;;23.70;57.50;;;;;;5027068;28;20082;-64
2021/08/25 02:25:15;;;;;;;2.00;1.80;;;23.70;57.70;;;;;;5008344;28;20065;-64
2021/08/25 02:27:41;;;;;;;2.90;1.80;;;23.70;57.40;;;;;;5024294;28;20032;-64
2021/08/25 02:30:07;;;;;;;1.50;1.33;;;23.70;57.50;;;;;;5026260;28;20044;-64
2021/08/25 02:32:32;;;;;;;2.42;1.60;;;23.60;57.50;;;;;;5033215;28;20487;-63
2021/08/25 02:34:58;;;;;;;2.60;1.80;;;23.60;57.90;;;;;;5030877;28;20032;-63
2021/08/25 02:37:24;;;;;;;2.05;1.85;;;23.50;58.40;;;;;;5032916;28;20100;-64
2021/08/25 02:39:49;;;;;;;2.72;2.03;;;23.50;58.40;;;;;;5026816;28;20025;-63
2021/08/25 02:42:15;;;;;;;2.60;1.77;;;23.50;58.40;;;;;;5033283;28;20495;-64
2021/08/25 02:44:40;;;;;;;1.67;1.20;;;23.60;58.50;;;;;;5021686;28;20136;-63
2021/08/25 02:47:06;;;;;;;2.38;1.13;;;23.50;58.30;;;;;;5031189;28;20048;-63
2021/08/25 02:49:32;;;;;;;1.67;1.58;;;23.50;58.60;;;;;;5027605;28;20105;-63
2021/08/25 02:51:57;;;;;;;4.18;1.75;;;23.50;58.70;;;;;;5033062;28;20029;-63
2021/08/25 02:54:23;;;;;;;1.95;1.80;;;23.50;58.60;;;;;;5031208;28;20036;-63
2021/08/25 02:56:48;;;;;;;2.58;2.05;;;23.50;59.00;;;;;;5030668;28;20021;-63
2021/08/25 02:59:15;;;;;;;2.08;1.90;;;23.40;59.10;;;;;;5026016;28;20103;-63
2021/08/25 03:01:40;;;;;;;2.03;1.90;;;23.50;59.20;;;;;;5030797;28;20041;-63
2021/08/25 03:04:06;;;;;;;2.78;1.88;;;23.50;59.20;;;;;;5028196;28;20033;-63
2021/08/25 03:06:32;;;;;;;3.88;2.22;;;23.50;59.50;;;;;;5022621;28;20365;-63
2021/08/25 03:08:59;;;;;;;3.55;2.10;;;23.40;59.40;;;;;;5023317;28;20125;-64
2021/08/25 03:11:25;;;;;;;2.15;1.95;;;23.40;59.70;;;;;;5029198;28;20454;-63
2021/08/25 03:13:50;;;;;;;2.40;2.00;;;23.50;59.80;;;;;;5024342;28;20037;-63
2021/08/25 03:16:16;;;;;;;2.15;1.50;;;23.50;59.80;;;;;;5031786;28;20041;-64
2021/08/25 03:18:41;;;;;;;5.45;2.35;;;23.50;59.50;;;;;;5028543;28;20041;-63
2021/08/25 03:21:07;;;;;;;2.88;2.15;;;23.40;59.50;;;;;;5027960;28;20087;-63
2021/08/25 03:23:33;;;;;;;3.92;2.50;;;23.50;59.70;;;;;;5025289;28;20076;-63
2021/08/25 03:25:58;;;;;;;2.40;1.92;;;23.40;59.60;;;;;;5023235;28;20041;-63
2021/08/25 03:28:24;;;;;;;2.78;2.00;;;23.50;59.80;;;;;;5030515;28;20059;-64
2021/08/25 03:30:49;;;;;;;2.50;1.92;;;23.50;59.50;;;;;;5027606;28;20472;-64
2021/08/25 03:33:15;;;;;;;3.65;2.22;;;23.50;59.60;;;;;;5023028;28;20029;-63
2021/08/25 03:35:41;;;;;;;3.88;1.90;;;23.50;59.90;;;;;;5030330;28;20065;-63
2021/08/25 03:38:06;;;;;;;3.15;1.83;;;23.50;59.80;;;;;;5032555;28;20022;-63
2021/08/25 03:40:32;;;;;;;4.50;2.13;;;23.60;60.40;;;;;;5030758;28;20091;-63
2021/08/25 03:42:58;;;;;;;3.08;2.05;;;23.50;61.10;;;;;;5031149;28;20029;-64
2021/08/25 03:45:23;;;;;;;3.20;2.38;;;23.50;60.70;;;;;;5023797;28;20037;-63
2021/08/25 03:47:49;;;;;;;2.97;1.95;;;23.40;61.00;;;;;;5032066;28;20530;-63
2021/08/25 03:50:14;;;;;;;2.60;2.10;;;23.40;61.30;;;;;;5010087;28;20487;-63
2021/08/25 03:52:40;;;;;;;7.40;2.10;;;23.50;61.80;;;;;;5031861;28;20466;-64
2021/08/25 03:55:06;;;;;;;3.35;1.88;;;23.40;61.80;;;;;;5029211;28;20064;-63
2021/08/25 03:57:32;;;;;;;5.88;2.38;;;23.40;62.10;;;;;;5031969;28;20086;-63
2021/08/25 03:59:58;;;;;;;4.68;2.15;;;23.40;62.30;;;;;;5022738;28;20125;-64
2021/08/25 04:02:23;;;;;;;3.03;1.48;;;23.40;62.20;;;;;;5022463;28;20096;-64
2021/08/25 04:04:49;;;;;;;2.83;1.70;;;23.40;62.80;;;;;;5022372;28;20025;-63
2021/08/25 04:07:14;;;;;;;4.88;2.05;;;23.50;63.20;;;;;;5027682;28;20430;-64
2021/08/25 04:09:40;;;;;;;3.10;1.98;;;23.50;62.70;;;;;;5031121;28;20041;-63
2021/08/25 04:12:06;;;;;;;3.25;1.90;;;23.50;62.60;;;;;;5032786;28;20033;-63
2021/08/25 04:14:32;;;;;;;3.33;1.60;;;23.40;63.20;;;;;;5035508;28;20383;-63
2021/08/25 04:16:58;;;;;;;3.50;1.80;;;23.40;63.20;;;;;;5034954;28;20022;-63
2021/08/25 04:19:23;;;;;;;3.58;1.85;;;23.30;63.30;;;;;;5022854;28;20037;-63
2021/08/25 04:21:49;;;;;;;3.42;1.73;;;23.40;63.80;;;;;;5021119;28;20625;-63
2021/08/25 04:24:15;;;;;;;3.65;2.10;;;23.40;63.50;;;;;;5026757;28;20037;-63
2021/08/25 04:26:40;;;;;;;2.78;2.22;;;23.40;63.40;;;;;;5033602;28;20055;-63
2021/08/25 04:29:06;;;;;;;3.35;1.52;;;23.40;63.80;;;;;;5027152;28;20022;-64
2021/08/25 04:31:32;;;;;;;1.60;1.33;;;23.20;63.60;;;;;;5030223;28;20386;-63
2021/08/25 04:33:57;;;;;;;2.28;1.48;;;23.30;64.10;;;;;;5037612;28;20018;-63
2021/08/25 04:36:23;;;;;;;1.63;1.35;;;23.10;64.20;;;;;;5031890;28;20048;-63
2021/08/25 04:38:48;;;;;;;1.65;1.48;;;23.10;64.60;;;;;;5035311;28;20056;-64
2021/08/25 04:41:14;;;;;;;4.30;1.92;;;23.20;64.90;;;;;;5034512;28;20479;-63
2021/08/25 04:43:39;;;;;;;2.15;1.50;;;23.10;64.60;;;;;;5034438;28;20044;-63
2021/08/25 04:46:05;;;;;;;1.70;1.58;;;23.30;64.30;;;;;;5032213;28;20041;-63
2021/08/25 04:48:31;;;;;;;2.22;1.65;;;23.30;64.10;;;;;;5035172;28;20025;-63
2021/08/25 04:50:56;;;;;;;3.13;1.40;;;23.20;64.30;;;;;;5029859;28;20128;-64
2021/08/25 04:53:23;;;;;;;2.13;1.60;;;23.20;64.50;;;;;;5035010;28;20108;-63
2021/08/25 04:55:49;;;;;;;3.47;1.40;;;23.10;64.60;;;;;;5033013;28;20109;-63
2021/08/25 04:58:15;;;;;;;4.05;1.40;;;23.20;65.10;;;;;;5035209;28;20026;-63
2021/08/25 05:00:40;;;;;;;3.80;1.60;;;23.20;64.40;;;;;;5024736;28;20072;-63
2021/08/25 05:03:06;;;;;;;3.35;1.83;;;23.30;64.70;;;;;;5031396;28;20395;-63
2021/08/25 05:05:33;;;;;;;1.70;1.55;;;23.30;64.50;;;;;;5036026;28;20434;-64
2021/08/25 05:07:58;;;;;;;2.35;1.73;;;23.30;64.30;;;;;;5034984;28;20128;-63
2021/08/25 05:10:24;;;;;;;1.90;1.17;;;23.30;64.70;;;;;;5033166;28;20037;-63
2021/08/25 05:12:49;;;;;;;1.40;1.20;;;23.30;64.00;;;;;;5033475;28;20099;-63
2021/08/25 05:15:15;;;;;;;1.67;1.45;;;23.30;64.20;;;;;;5032819;28;20471;-63
2021/08/25 05:17:41;;;;;;;1.55;1.27;;;23.30;64.80;;;;;;5032187;28;20029;-63
2021/08/25 05:20:07;;;;;;;2.53;1.40;;;23.50;64.60;;;;;;5026404;28;20037;-63
2021/08/25 05:22:34;;;;;;;5.30;1.50;;;23.40;63.80;;;;;;5032688;28;20029;-63
2021/08/25 05:25:00;;;;;;;1.75;1.60;;;23.50;63.30;;;;;;5033153;28;20091;-63
2021/08/25 05:27:25;;;;;;;1.83;1.23;;;23.50;62.80;;;;;;5034060;28;20033;-63
2021/08/25 05:29:51;;;;;;;2.35;1.58;;;23.60;62.40;;;;;;5031361;28;20060;-64
2021/08/25 05:32:17;;;;;;;1.73;1.52;;;23.60;62.20;;;;;;5033664;28;20033;-63
2021/08/25 05:34:43;;;;;;;2.75;1.33;;;23.60;62.50;;;;;;5009642;28;20061;-63
2021/08/25 05:37:09;;;;;;;1.33;1.20;;;23.60;62.10;;;;;;5033889;28;20029;-63
2021/08/25 05:39:35;;;;;;;2.15;1.42;;;23.60;61.90;;;;;;5031053;28;20041;-63
2021/08/25 05:42:00;;;;;;;2.05;1.33;;;23.50;62.00;;;;;;5033301;28;20056;-63
2021/08/25 05:44:26;;;;;;;2.40;1.23;;;23.60;62.10;;;;;;5029629;28;20487;-63
2021/08/25 05:46:52;;;;;;;4.30;1.25;;;23.60;62.00;;;;;;5012823;28;20076;-63
2021/08/25 05:49:17;;;;;;;4.13;1.00;;;23.60;62.40;;;;;;5023369;28;20026;-63
2021/08/25 05:51:43;;;;;;;2.35;1.20;;;23.60;62.50;;;;;;5033304;28;20041;-63
2021/08/25 05:54:13;;;;;;;1.38;1.15;;;23.50;61.60;;;;;;5033314;28;20030;-63
2021/08/25 05:56:39;;;;;;;1.40;1.30;;;23.50;62.00;;;;;;5028479;28;20022;-63
2021/08/25 05:59:05;;;;;;;3.28;1.33;;;23.40;62.20;;;;;;5027969;28;20033;-63
2021/08/25 06:01:31;;;;;;;2.30;1.40;;;23.50;62.60;;;;;;5027608;28;20026;-63
2021/08/25 06:03:56;;;;;;;1.95;1.00;;;23.50;62.30;;;;;;5023258;28;20026;-63
2021/08/25 06:06:22;;;;;;;1.30;1.10;;;23.50;61.90;;;;;;5032422;28;20030;-63
2021/08/25 06:08:47;;;;;;;2.42;1.20;;;23.40;61.40;;;;;;5029793;28;20550;-63
2021/08/25 06:11:13;;;;;;;4.18;2.55;;;23.50;62.30;;;;;;5026735;28;20030;-63
2021/08/25 06:13:39;;;;;;;2.95;1.30;;;23.50;62.20;;;;;;5032008;28;20418;-63
2021/08/25 06:16:05;;;;;;;1.48;1.30;;;23.50;61.60;;;;;;5031286;28;20021;-63
2021/08/25 06:18:31;;;;;;;5.53;1.70;;;23.60;62.30;;;;;;5031378;28;20040;-63
2021/08/25 06:20:56;;;;;;;5.03;1.02;;;23.70;62.10;;;;;;5020241;28;20025;-63
2021/08/25 06:23:22;;;;;;;2.65;1.50;;;23.80;61.20;;;;;;5031615;28;20036;-63
2021/08/25 06:25:49;;;;;;;5.03;1.88;;;23.90;60.80;;;;;;5028776;28;20033;-63
2021/08/25 06:28:15;;;;;;;1.45;1.20;;;24.00;60.20;;;;;;5021644;28;20432;-63
2021/08/25 06:30:40;;;;;;;2.40;1.40;;;24.20;59.80;;;;;;5029023;28;20056;-63
2021/08/25 06:33:06;;;;;;;4.68;1.38;;;24.20;59.30;;;;;;5030769;28;20094;-63
2021/08/25 06:35:32;;;;;;;3.25;1.30;;;24.00;58.60;;;;;;5024471;28;20037;-63
2021/08/25 06:37:57;;;;;;;2.33;1.40;;;24.10;59.10;;;;;;5031372;28;20028;-63
2021/08/25 06:40:23;;;;;;;4.80;1.45;;;24.30;58.80;;;;;;5032375;28;20042;-63
2021/08/25 06:42:48;;;;;;;1.95;1.30;;;24.40;57.80;;;;;;5032104;28;20100;-63
2021/08/25 06:45:14;;;;;;;4.72;1.77;;;24.40;57.60;;;;;;5030109;28;20064;-63
2021/08/25 06:47:40;;;;;;;1.45;1.20;;;24.50;57.50;;;;;;5030716;28;20105;-63
2021/08/25 06:50:06;;;;;;;3.08;1.35;;;24.60;58.00;;;;;;5023439;28;20910;-63
2021/08/25 06:52:32;;;;;;;1.63;1.13;;;24.50;57.40;;;;;;5028246;28;20101;-64
2021/08/25 06:54:58;;;;;;;2.92;1.10;;;24.60;57.00;;;;;;5024787;28;20152;-63
2021/08/25 06:57:24;;;;;;;1.48;1.15;;;24.70;56.60;;;;;;5028692;28;20029;-63
2021/08/25 06:59:49;;;;;;;10.43;1.67;;;24.80;56.50;;;;;;5029512;28;20128;-64
2021/08/25 07:02:15;;;;;;;1.00;0.93;;;24.80;55.50;;;;;;5017049;28;20033;-63
2021/08/25 07:04:46;;;;;;;5.13;1.90;;;24.90;55.70;;;;;;5029604;28;20037;-63
2021/08/25 07:07:13;;;;;;;3.15;1.25;;;24.90;55.40;;;;;;5031018;28;20032;-63
2021/08/25 07:09:39;;;;;;;5.57;1.33;;;24.80;55.50;;;;;;5033195;28;20025;-64
2021/08/25 07:12:06;;;;;;;4.47;1.40;;;24.90;55.60;;;;;;5031003;28;20435;-63
2021/08/25 07:14:32;;;;;;;3.38;1.52;;;24.80;55.70;;;;;;5025950;28;20025;-63
2021/08/25 07:16:58;;;;;;;3.13;1.48;;;24.80;55.50;;;;;;5027910;28;20040;-63
2021/08/25 07:19:23;;;;;;;11.52;2.17;;;24.80;55.30;;;;;;5014897;28;20026;-63
2021/08/25 07:21:49;;;;;;;3.70;1.38;;;24.80;54.90;;;;;;5020451;28;20022;-64
2021/08/25 07:24:15;;;;;;;3.40;1.50;;;24.80;55.00;;;;;;5028436;28;20037;-64
2021/08/25 07:26:41;;;;;;;3.05;1.15;;;24.80;55.00;;;;;;5017324;28;20391;-64
2021/08/25 07:29:06;;;;;;;2.28;1.30;;;24.70;54.30;;;;;;5020356;28;20030;-64
2021/08/25 07:31:32;;;;;;;2.75;0.85;;;24.80;54.00;;;;;;5029025;28;20096;-63
2021/08/25 07:33:58;;;;;;;2.90;1.10;;;24.80;53.30;;;;;;5019733;28;20522;-63
2021/08/25 07:36:23;;;;;;;4.25;1.20;;;24.80;54.40;;;;;;5012976;28;20037;-62
2021/08/25 07:38:50;;;;;;;6.00;1.27;;;24.90;53.60;;;;;;5031094;28;20084;-63
2021/08/25 07:41:15;;;;;;;6.10;1.35;;;24.90;53.70;;;;;;5029463;28;20057;-63
2021/08/25 07:43:41;;;;;;;1.45;1.10;;;24.80;53.60;;;;;;5024393;28;20421;-63
2021/08/25 07:46:06;;;;;;;2.63;1.20;;;24.90;53.60;;;;;;5033935;28;20052;-63
2021/08/25 07:48:32;;;;;;;5.72;1.70;;;24.90;53.20;;;;;;5021838;28;20026;-63
2021/08/25 07:50:58;;;;;;;7.00;1.15;;;24.90;52.80;;;;;;5029513;28;20104;-63
2021/08/25 07:53:23;;;;;;;3.05;1.13;;;24.90;52.40;;;;;;5029907;28;20048;-64
2021/08/25 07:55:49;;;;;;;3.10;1.40;;;25.00;52.10;;;;;;5035551;28;20112;-64
2021/08/25 07:58:15;;;;;;;3.17;1.08;;;25.10;52.00;;;;;;5022342;28;20388;-63
2021/08/25 08:00:40;;;;;;;2.80;1.30;;;25.00;51.00;;;;;;5031075;28;20045;-64
2021/08/25 08:03:07;;;;;;;1.55;0.93;;;25.10;50.30;;;;;;5035290;28;20037;-64
2021/08/25 08:05:32;;;;;;;5.32;0.95;;;25.10;50.20;;;;;;5032466;28;20475;-63
2021/08/25 08:07:58;;;;;;;3.72;1.40;;;25.20;50.30;;;;;;5036100;28;20029;-64
2021/08/25 08:10:24;;;;;;;4.00;1.10;;;25.20;50.10;;;;;;5035290;28;20033;-64
2021/08/25 08:12:50;;;;;;;3.28;1.15;;;25.10;50.40;;;;;;5035062;28;20021;-64
2021/08/25 08:15:16;;;;;;;6.13;0.93;;;25.10;51.00;;;;;;5019609;28;20388;-64
2021/08/25 08:17:46;;;;;;;1.60;1.20;;;25.10;50.50;;;;;;5035904;28;20044;-64
2021/08/25 08:20:15;;;;;;;7.70;1.20;;;25.10;50.70;;;;;;5035918;28;20159;-64
2021/08/25 08:22:41;;;;;;;2.78;1.23;;;25.20;51.20;;;;;;5023763;28;20041;-63
2021/08/25 08:25:07;;;;;;;2.28;1.25;;;25.20;51.20;;;;;;5016013;28;20392;-64
2021/08/25 08:27:33;;;;;;;2.50;0.82;;;25.30;51.20;;;;;;5031980;28;20022;-64
2021/08/25 08:30:00;;;;;;;1.88;1.00;;;25.30;51.00;;;;;;5036075;28;20459;-64
2021/08/25 08:32:26;;;;;;;2.85;1.55;;;25.40;50.70;;;;;;5034349;28;20059;-64
2021/08/25 08:34:52;;;;;;;1.20;1.02;;;25.40;50.50;;;;;;5035688;28;20025;-64
2021/08/25 08:37:17;;;;;;;11.68;2.25;;;25.60;50.10;;;;;;5034646;28;20120;-64
2021/08/25 08:39:43;;;;;;;2.60;1.25;;;25.80;50.10;;;;;;5035702;28;20018;-64
2021/08/25 08:42:24;;;;;;;1.85;0.80;;;26.00;49.10;;;;;;5032735;28;20454;-64
2021/08/25 08:44:51;;;;;;;4.55;1.00;;;26.00;48.70;;;;;;5023492;28;20033;-63
2021/08/25 08:47:17;;;;;;;1.65;0.98;;;26.40;50.70;;;;;;5027254;28;20101;-64
2021/08/25 08:49:45;;;;;;;2.88;1.30;;;26.50;53.60;;;;;;5033607;28;20112;-64
2021/08/25 08:52:10;;;;;;;3.00;1.13;;;26.60;53.20;;;;;;5032334;28;20445;-63
2021/08/25 08:54:36;;;;;;;9.00;1.48;;;26.60;53.40;;;;;;5016777;28;20110;-64
2021/08/25 08:57:02;;;;;;;5.50;1.50;;;26.60;53.80;;;;;;5029906;28;20021;-63
2021/08/25 08:59:27;;;;;;;10.23;2.53;;;26.80;53.00;;;;;;5032866;28;20384;-63
2021/08/25 09:01:53;;;;;;;7.65;1.40;;;27.00;55.70;;;;;;5033648;28;20029;-63
2021/08/25 09:04:35;;;;;;;1.58;1.10;;;27.00;57.10;;;;;;5022733;28;20026;-63
2021/08/25 09:07:02;;;;;;;4.15;1.48;;;27.10;58.10;;;;;;5023552;28;20037;-63
2021/08/25 09:09:27;;;;;;;5.63;1.10;;;27.10;57.10;;;;;;5032777;28;20035;-63
2021/08/25 09:11:55;;;;;;;3.75;1.10;;;26.90;57.40;;;;;;5031118;28;20029;-64
2021/08/25 09:14:27;;;;;;;7.05;1.38;;;26.70;58.10;;;;;;5022249;28;20033;-63
2021/08/25 09:17:00;;;;;;;1.52;1.05;;;26.50;59.30;;;;;;5024674;28;20067;-63
2021/08/25 09:19:34;;;;;;;2.55;1.27;;;26.50;59.60;;;;;;5023698;28;20029;-63
2021/08/25 09:22:00;;;;;;;2.13;1.08;;;26.60;59.70;;;;;;5013051;28;20061;-63
2021/08/25 09:24:38;;;;;;;2.35;1.10;;;26.70;59.70;;;;;;5025927;28;20037;-63
2021/08/25 09:27:06;;;;;;;1.90;1.15;;;26.50;61.00;;;;;;5031335;28;20071;-63
2021/08/25 09:29:32;;;;;;;2.45;1.40;;;26.50;60.30;;;;;;5034024;28;20029;-63
2021/08/25 09:31:58;;;;;;;5.47;1.20;;;26.40;61.00;;;;;;5031676;28;20364;-64
2021/08/25 09:34:28;;;;;;;2.75;2.22;;;26.50;61.60;;;;;;5014660;28;20479;-63
2021/08/25 09:37:11;;;;;;;2.63;1.42;;;26.40;62.70;;;;;;5032562;28;20540;-63
2021/08/25 09:39:46;;;;;;;9.90;1.58;;;26.50;62.20;;;;;;5032766;28;20044;-63
2021/08/25 09:42:13;;;;;;;2.15;1.30;;;26.70;62.00;;;;;;5032819;28;20022;-63
2021/08/25 09:44:39;;;;;;;4.88;1.27;;;26.70;61.40;;;;;;5028951;28;20112;-63
2021/08/25 09:47:05;;;;;;;3.53;1.27;;;26.90;61.30;;;;;;5026987;28;20056;-63
2021/08/25 09:49:31;;;;;;;2.53;1.42;;;26.80;60.90;;;;;;5029335;28;20332;-63
2021/08/25 09:51:56;;;;;;;6.03;1.63;;;26.90;60.80;;;;;;5028779;28;20037;-63
2021/08/25 09:54:22;;;;;;;6.05;1.95;;;27.10;60.20;;;;;;5023596;28;20033;-63
2021/08/25 09:56:53;;;;;;;3.25;1.55;;;27.10;59.50;;;;;;5029626;28;20494;-63
2021/08/25 09:59:19;;;;;;;1.42;1.10;;;27.10;59.30;;;;;;5033453;28;20049;-63
2021/08/25 10:01:45;;;;;;;5.43;1.42;;;27.00;59.60;;;;;;5028962;28;20029;-63
2021/08/25 10:04:14;;;;;;;3.55;1.27;;;27.10;59.30;;;;;;5033886;28;20022;-63
2021/08/25 10:06:50;;;;;;;1.52;1.38;;;27.10;59.40;;;;;;5031741;28;20025;-63
2021/08/25 10:09:17;;;;;;;4.22;1.70;;;27.10;59.50;;;;;;5021334;28;20024;-63
2021/08/25 10:11:52;;;;;;;3.70;1.38;;;27.10;59.90;;;;;;5032068;28;20483;-63
2021/08/25 10:14:18;;;;;;;2.75;1.25;;;27.00;59.60;;;;;;5031042;28;20025;-63
2021/08/25 10:16:51;;;;;;;3.38;1.30;;;27.10;60.80;;;;;;5021179;28;20358;-63
2021/08/25 10:19:40;;;;;;;3.28;1.77;;;27.20;61.00;;;;;;5026895;28;20025;-63
2021/08/25 10:22:14;;;;;;;1.83;1.60;;;27.10;61.40;;;;;;5024914;28;20057;-63
2021/08/25 10:24:59;;;;;;;5.15;2.15;;;27.20;63.80;;;;;;5029035;28;20390;-63
2021/08/25 10:27:25;;;;;;;;;;;27.10;54.40;;;;;;5032048;28;20163;-63
2021/08/25 10:30:03;;;;;;;2.35;1.38;;;27.10;54.20;;;;;;5025326;28;20263;-63
2021/08/25 10:32:52;;;;;;;2.35;1.85;;;27.20;53.80;;;;;;5032058;28;20021;-63
2021/08/25 10:35:23;;;;;;;3.53;1.75;;;27.40;53.60;;;;;;5020450;28;20033;-63
2021/08/25 10:38:13;;;;;;;5.47;1.65;;;27.50;53.20;;;;;;5025158;28;20025;-62
2021/08/25 10:40:38;;;;;;;5.72;1.38;;;27.30;52.60;;;;;;5023685;28;20086;-63
2021/08/25 10:43:04;;;;;;;3.20;2.08;;;27.50;53.60;;;;;;5022894;28;20021;-62
2021/08/25 10:45:44;;;;;;;5.35;1.70;;;27.60;53.30;;;;;;5024936;28;20406;-62
2021/08/25 10:48:11;;;;;;;2.97;1.92;;;27.70;53.30;;;;;;5027317;28;20029;-63
2021/08/25 10:50:58;;;;;;;5.47;2.13;;;27.80;54.50;;;;;;5027536;28;20120;-62
2021/08/25 10:53:30;;;;;;;4.90;1.70;;;27.70;54.80;;;;;;5027114;28;20101;-62
2021/08/25 10:56:15;;;;;;;3.95;1.98;;;27.60;55.20;;;;;;5023458;28;20080;-62
2021/08/25 10:58:51;;;;;;;2.03;1.05;;;27.50;55.20;;;;;;5022987;28;20104;-63
2021/08/25 11:01:24;;;;;;;3.75;2.00;;;27.50;54.00;;;;;;5019840;28;20124;-63
2021/08/25 11:03:51;;;;;;;4.07;1.63;;;27.30;55.40;;;;;;5028768;28;20332;-62
2021/08/25 11:06:40;;;;;;;2.75;1.90;;;27.40;55.40;;;;;;5029531;28;20044;-63
2021/08/25 11:09:25;;;;;;;4.53;1.88;;;27.70;55.80;;;;;;5022769;28;20047;-62
2021/08/25 11:12:04;;;;;;;2.80;2.08;;;28.00;54.40;;;;;;5024273;28;20022;-63
2021/08/25 11:14:44;;;;;;;2.67;1.55;;;28.20;53.80;;;;;;5030774;28;20037;-63
2021/08/25 11:17:14;;;;;;;3.75;1.75;;;28.50;43.80;;;;;;5031209;28;20352;-63
2021/08/25 11:19:53;;;;;;;2.55;1.55;;;28.60;42.80;;;;;;5032489;28;20403;-63
2021/08/25 11:22:22;;;;;;;5.07;2.00;;;29.00;42.20;;;;;;5030034;28;20383;-63
2021/08/25 11:24:50;;;;;;;5.53;1.60;;;29.10;41.00;;;;;;5030689;28;20109;-63
2021/08/25 11:27:17;;;;;;;6.28;1.60;;;29.20;40.20;;;;;;5031379;28;20037;-63
2021/08/25 11:29:43;;;;;;;1.48;1.38;;;29.20;39.00;;;;;;5032975;28;20034;-63
2021/08/25 11:32:09;;;;;;;2.30;1.35;;;29.40;38.90;;;;;;5028857;28;20036;-63
2021/08/25 11:34:43;;;;;;;4.95;1.60;;;29.40;38.00;;;;;;5032697;28;20057;-63
2021/08/25 11:37:08;;;;;;;2.10;1.08;;;29.50;37.50;;;;;;5008125;28;20487;-63
2021/08/25 11:39:34;;;;;;;7.50;1.40;;;29.60;36.10;;;;;;5019636;28;20029;-63
2021/08/25 11:42:00;;;;;;;4.10;1.20;;;;;;;;;;5031041;28;20029;-63
2021/08/25 11:44:43;;;;;;;3.47;1.80;;;30.10;37.60;;;;;;5031912;28;20356;-63
2021/08/25 11:47:14;;;;;;;4.10;1.40;;;30.80;34.00;;;;;;5031270;28;20034;-63
2021/08/25 11:49:40;;;;;;;3.05;2.08;;;33.60;30.30;;;;;;5026715;28;20076;-63
2021/08/25 11:52:08;;;;;;;3.20;2.03;;;36.50;26.50;;;;;;5024224;28;20026;-63
2021/08/25 11:54:35;;;;;;;5.22;1.50;;;37.10;23.80;;;;;;5025060;28;20029;-63
2021/08/25 11:57:00;;;;;;;2.83;1.52;;;38.40;23.00;;;;;;5017652;28;20025;-63
2021/08/25 11:59:26;;;;;;;4.22;1.70;;;38.30;22.20;;;;;;5030224;28;20058;-63
2021/08/25 12:02:06;;;;;;;2.35;1.38;;;38.80;22.10;;;;;;5026679;28;20018;-63
2021/08/25 12:04:32;;;;;;;2.58;1.90;;;38.40;21.40;;;;;;5029884;28;20056;-63
2021/08/25 12:06:58;;;;;;;4.43;1.80;;;37.60;22.10;;;;;;5010711;28;20056;-63
2021/08/25 12:09:32;;;;;;;4.85;2.05;;;35.00;24.10;;;;;;5029237;28;20171;-63
2021/08/25 12:11:57;;;;;;;2.58;1.67;;;33.70;25.00;;;;;;5030434;28;20118;-64
2021/08/25 12:14:23;;;;;;;2.63;1.60;;;32.60;27.80;;;;;;5026206;28;20759;-63
2021/08/25 12:17:06;;;;;;;2.50;1.27;;;31.80;28.90;;;;;;5001678;28;20044;-63
2021/08/25 12:19:35;;;;;;;2.33;1.55;;;31.30;32.60;;;;;;5028416;28;20017;-63
2021/08/25 12:22:19;;;;;;;3.90;1.50;;;32.10;32.10;;;;;;5024554;28;20049;-63
2021/08/25 12:24:44;;;;;;;;;;;34.20;27.00;;;;;;5029016;28;20044;-62
2021/08/25 12:27:10;;;;;;;6.15;2.13;;;33.00;26.50;;;;;;5024333;28;20542;-61
2021/08/25 12:29:35;;;;;;;1.77;1.42;;;32.10;30.50;;;;;;5010315;28;20038;-63
2021/08/25 12:32:02;;;;;;;2.80;1.67;;;31.40;29.90;;;;;;5013088;28;20514;-63
2021/08/25 12:34:28;;;;;;;2.22;1.67;;;32.40;32.40;;;;;;5014999;28;20033;-63
2021/08/25 12:36:58;;;;;;;2.40;1.65;;;33.80;29.00;;;;;;5006737;28;20029;-63
2021/08/25 12:39:28;;;;;;;2.28;1.50;;;31.80;30.50;;;;;;5014964;28;20029;-63
2021/08/25 12:41:56;;;;;;;1.70;1.60;;;31.30;30.70;;;;;;5027546;28;21888;-62
2021/08/25 12:44:22;;;;;;;2.55;1.40;;;31.20;32.80;;;;;;5031109;28;20025;-63
2021/08/25 12:46:59;;;;;;;4.03;1.60;;;31.10;37.10;;;;;;5030727;28;20029;-63
2021/08/25 12:49:27;;;;;;;1.83;1.55;;;30.70;38.70;;;;;;5027792;28;20387;-63